Nikolski, Alaska
Current Conditions -  °F | °C
As of 4:56 AM on Wednesday 26 Nov 2014 (Local Time) from PADU Reporting Station
Light Rain Light Rain  
Wind Chill: 35°   Ceiling: 2200
Heat Index: 44°   Visibility: 10mi
Dew Point: 39°   Wind: 22mph
Humidity: 82%   Direction: 150°SSE
Pressure: 29.91"   Gusts: 33mph
Location:  52.95°N, 168.85°W
Report Text: PADU 261356Z AUTO 15019G29KT 10SM -RA OVC022 07/04 A2991 RMK AO2 PK WND 14034/1301 SLP134 P0002 T00670039
Loading
Personal Weather Stations






























Interactive Weather Map New forecast layout! Learn more

10-Day Weather Forecast

Advertisements
Track Severe Weather on mobile